Time;durP1;ratioP1;P1;durP2;ratioP2;P2;SDS_P1;SDS_P2;PMS_P1;PMS_P2;Temp;Humidity;BMP_temperature;BMP_pressure;BME280_temperature;BME280_humidity;BME280_pressure;Samples;Min_cycle;Max_cycle;Signal;HPM_P1;HPM_P2
2022/03/04 00:01:06;;;;;;;83.82;12.15;;;;;;;-0.68;100.00;102398.50;4992528;28;20203;-42
2022/03/04 00:03:32;;;;;;;80.78;11.85;;;;;;;-0.63;100.00;102407.47;4991450;28;20177;-42
2022/03/04 00:05:57;;;;;;;166.65;13.13;;;;;;;-0.73;100.00;102395.72;4992019;28;20239;-46
2022/03/04 00:08:23;;;;;;;53.92;10.48;;;;;;;-0.63;100.00;102400.47;4992137;28;20371;-43
2022/03/04 00:10:48;;;;;;;64.95;10.68;;;;;;;-0.66;100.00;102407.34;4991943;28;20177;-42
2022/03/04 00:13:14;;;;;;;47.28;10.57;;;;;;;-0.60;100.00;102401.41;4992000;28;20184;-47
2022/03/04 00:15:39;;;;;;;80.60;11.10;;;;;;;-0.58;100.00;102408.50;4992064;28;20178;-44
2022/03/04 00:18:05;;;;;;;34.08;10.13;;;;;;;-0.48;100.00;102401.78;4992003;28;20647;-44
2022/03/04 00:20:31;;;;;;;67.00;10.52;;;;;;;-0.51;100.00;102412.22;4992233;28;20229;-46
2022/03/04 00:22:56;;;;;;;71.10;10.30;;;;;;;-0.56;100.00;102406.81;4990975;28;20684;-48
2022/03/04 00:25:22;;;;;;;138.38;11.90;;;;;;;-0.67;100.00;102411.72;4991882;28;20174;-42
2022/03/04 00:27:47;;;;;;;39.83;9.02;;;;;;;-0.62;100.00;102404.88;4991957;28;20600;-41
2022/03/04 00:30:13;;;;;;;20.52;8.50;;;;;;;-0.61;100.00;102397.88;4991828;28;20158;-41
2022/03/04 00:32:39;;;;;;;40.92;9.68;;;;;;;-0.53;100.00;102396.38;4991216;28;20339;-44
2022/03/04 00:35:05;;;;;;;59.65;10.88;;;;;;;-0.50;100.00;102393.88;4991427;28;20213;-43
2022/03/04 00:37:31;;;;;;;151.65;12.70;;;;;;;-0.59;100.00;102397.91;4974026;28;20340;-46
2022/03/04 00:39:56;;;;;;;22.67;9.50;;;;;;;-0.51;100.00;102399.97;4991709;28;20204;-43
2022/03/04 00:42:22;;;;;;;23.00;9.82;;;;;;;-0.45;100.00;102397.53;4990920;28;20197;-42
2022/03/04 00:44:47;;;;;;;44.00;10.63;;;;;;;-0.37;100.00;102399.50;4991697;28;20180;-43
2022/03/04 00:47:13;;;;;;;45.15;10.95;;;;;;;-0.30;100.00;102390.97;4991814;28;20189;-42
2022/03/04 00:49:38;;;;;;;34.33;10.13;;;;;;;-0.34;100.00;102400.50;4991711;28;20191;-43
2022/03/04 00:52:04;;;;;;;66.55;12.32;;;;;;;-0.36;100.00;102396.94;4990877;28;20190;-44
2022/03/04 00:54:30;;;;;;;56.25;11.63;;;;;;;-0.36;100.00;102398.69;4974064;28;20247;-44
2022/03/04 00:56:55;;;;;;;51.92;11.98;;;;;;;-0.40;100.00;102399.41;4974385;28;20252;-42
2022/03/04 00:59:21;;;;;;;113.45;12.85;;;;;;;-0.43;100.00;102395.84;4991023;28;20279;-43
2022/03/04 01:01:46;;;;;;;21.25;10.95;;;;;;;-0.32;100.00;102403.19;4991306;28;20673;-43
2022/03/04 01:04:11;;;;;;;87.10;13.30;;;;;;;-0.40;100.00;102400.31;4991536;28;20568;-42
2022/03/04 01:06:38;;;;;;;68.68;14.15;;;;;;;-0.45;100.00;102397.53;4990948;28;20196;-43
2022/03/04 01:09:04;;;;;;;25.33;10.88;;;;;;;-0.35;100.00;102395.19;4991382;28;20161;-43
2022/03/04 01:11:29;;;;;;;49.42;12.00;;;;;;;-0.31;100.00;102391.81;4990923;28;20271;-42
2022/03/04 01:13:55;;;;;;;41.05;10.77;;;;;;;-0.29;100.00;102390.13;4973001;28;20204;-43
2022/03/04 01:16:20;;;;;;;19.27;9.90;;;;;;;-0.33;100.00;102390.84;4990962;28;20685;-47
2022/03/04 01:18:46;;;;;;;19.70;9.32;;;;;;;-0.30;100.00;102381.31;4990697;28;20180;-42
2022/03/04 01:21:11;;;;;;;41.63;10.98;;;;;;;-0.26;100.00;102391.13;4990880;28;20197;-42
2022/03/04 01:23:36;;;;;;;44.00;10.63;;;;;;;-0.31;100.00;102382.16;4990333;28;20173;-46
2022/03/04 01:26:03;;;;;;;26.75;10.27;;;;;;;-0.37;100.00;102395.16;4991011;28;20696;-43
2022/03/04 01:28:28;;;;;;;33.28;11.20;;;;;;;-0.33;100.00;102393.50;4990725;28;20664;-42
2022/03/04 01:30:53;;;;;;;68.45;12.15;;;;;;;-0.42;100.00;102389.75;4990268;28;20244;-43
2022/03/04 01:33:19;;;;;;;20.30;9.57;;;;;;;-0.38;100.00;102393.34;4990354;28;20239;-47
2022/03/04 01:35:45;;;;;;;15.85;8.45;;;;;;;-0.35;100.00;102379.38;4990525;28;20323;-42
2022/03/04 01:38:11;;;;;;;102.47;11.18;;;;;;;-0.41;100.00;102377.47;4990990;28;20555;-41
2022/03/04 01:40:37;;;;;;;32.55;12.13;;;;;;;-0.40;100.00;102381.88;4991067;28;20197;-43
2022/03/04 01:43:03;;;;;;;29.77;9.95;;;;;;;-0.51;100.00;102385.91;4988610;28;20808;-42
2022/03/04 01:45:29;;;;;;;51.72;11.15;;;;;;;-0.47;100.00;102377.25;4990816;28;20212;-43
2022/03/04 01:47:55;;;;;;;48.88;10.93;;;;;;;-0.49;100.00;102387.75;4990285;28;20193;-44
2022/03/04 01:50:20;;;;;;;67.32;11.05;;;;;;;-0.76;100.00;102389.50;4990247;28;20290;-43
2022/03/04 01:52:46;;;;;;;86.07;11.50;;;;;;;-0.69;100.00;102378.31;4993123;28;20267;-46
2022/03/04 01:55:11;;;;;;;107.15;12.25;;;;;;;-0.88;100.00;102384.69;4994854;28;20170;-42
2022/03/04 01:57:37;;;;;;;81.82;10.57;;;;;;;-0.79;100.00;102376.22;4994782;28;20169;-43
2022/03/04 02:00:07;;;;;;;81.35;10.57;;;;;;;-0.78;100.00;102391.16;4994558;28;20571;-42
2022/03/04 02:02:37;;;;;;;105.78;11.73;;;;;;;-0.70;100.00;102387.03;4993826;28;20189;-41
2022/03/04 02:05:03;;;;;;;91.07;10.93;;;;;;;-0.75;100.00;102379.00;4994360;28;20173;-43
2022/03/04 02:07:29;;;;;;;15.68;8.48;;;;;;;-0.58;100.00;102378.66;4994353;28;20261;-43
2022/03/04 02:09:54;;;;;;;103.15;10.63;;;;;;;-0.69;100.00;102378.31;4994503;28;20193;-44
2022/03/04 02:12:20;;;;;;;75.18;9.63;;;;;;;-0.67;100.00;102384.53;4994171;28;20197;-42
2022/03/04 02:14:45;;;;;;;263.15;14.10;;;;;;;-0.90;100.00;102386.38;4994504;28;20235;-42
2022/03/04 02:17:11;;;;;;;14.75;7.75;;;;;;;-0.79;100.00;102386.72;4994507;28;20268;-44
2022/03/04 02:19:36;;;;;;;228.07;13.98;;;;;;;-1.05;100.00;102397.25;4993856;28;20246;-41
2022/03/04 02:22:04;;;;;;;112.80;11.05;;;;;;;-0.91;100.00;102389.84;4976130;28;20205;-42
2022/03/04 02:24:31;;;;;;;53.25;9.43;;;;;;;-0.92;100.00;102382.78;4994082;28;20170;-45
2022/03/04 02:27:00;;;;;;;118.22;10.35;;;;;;;-0.88;100.00;102389.94;4994026;28;20266;-42
2022/03/04 02:29:26;;;;;;;103.18;10.55;;;;;;;-0.87;100.00;102394.38;4994058;28;20177;-43
2022/03/04 02:31:52;;;;;;;123.35;9.93;;;;;;;-0.95;100.00;102391.47;4993262;28;20601;-45
2022/03/04 02:34:17;;;;;;;86.72;9.38;;;;;;;-1.08;100.00;102384.91;4993890;28;20191;-41
2022/03/04 02:36:43;;;;;;;65.60;8.95;;;;;;;-0.96;100.00;102386.16;4993966;28;20196;-41
2022/03/04 02:39:09;;;;;;;82.13;10.40;;;;;;;-1.11;100.00;102386.56;4970026;28;20684;-42
2022/03/04 02:41:35;;;;;;;68.82;9.07;;;;;;;-1.11;100.00;102381.28;4993367;28;20247;-42
2022/03/04 02:44:18;;;;;;;290.65;13.55;;;;;;;-1.22;100.00;102382.63;4993173;28;20675;-42
2022/03/04 02:46:44;;;;;;;100.03;10.02;;;;;;;-1.14;100.00;102386.41;4992892;28;20227;-45
2022/03/04 02:49:11;;;;;;;177.10;10.50;;;;;;;-1.21;100.00;102393.19;4992435;28;20269;-40
2022/03/04 02:51:37;;;;;;;26.15;7.93;;;;;;;-1.05;100.00;102382.41;4993285;28;20193;-43
2022/03/04 02:54:03;;;;;;;49.17;8.23;;;;;;;-1.04;100.00;102378.03;4993201;28;20628;-42
2022/03/04 02:56:29;;;;;;;12.93;7.03;;;;;;;-0.92;100.00;102385.41;4993536;28;20176;-42
2022/03/04 02:58:54;;;;;;;27.10;8.50;;;;;;;-0.93;100.00;102379.28;5008455;28;20625;-45
2022/03/04 03:01:20;;;;;;;28.08;7.45;;;;;;;-1.14;100.00;102384.69;4993380;28;20200;-40
2022/03/04 03:03:45;;;;;;;17.52;7.80;;;;;;;-0.90;100.00;102389.00;4991487;28;20261;-44
2022/03/04 03:06:11;;;;;;;21.38;7.35;;;;;;;-0.96;100.00;102387.06;4993038;28;20185;-44
2022/03/04 03:08:36;;;;;;;50.70;8.70;;;;;;;-1.09;100.00;102382.25;4993360;28;20239;-42
2022/03/04 03:11:02;;;;;;;92.63;8.90;;;;;;;-1.07;100.00;102383.19;5008114;28;20695;-41
2022/03/04 03:13:27;;;;;;;37.75;9.02;;;;;;;-1.18;100.00;102379.25;4992355;28;20260;-42
2022/03/04 03:15:53;;;;;;;11.15;7.35;;;;;;;-1.02;100.00;102388.59;4993348;28;20188;-39
2022/03/04 03:18:18;;;;;;;10.13;6.85;;;;;;;-0.90;100.00;102391.63;4992589;28;20637;-43
2022/03/04 03:20:44;;;;;;;12.52;6.97;;;;;;;-1.00;100.00;102387.81;4993167;28;20198;-42
2022/03/04 03:23:10;;;;;;;17.13;7.28;;;;;;;-1.01;100.00;102393.00;4974958;28;20374;-46
2022/03/04 03:25:36;;;;;;;16.08;7.32;;;;;;;-1.01;100.00;102388.63;4992873;28;20161;-44
2022/03/04 03:28:03;;;;;;;97.75;9.55;;;;;;;-1.30;100.00;102396.41;4974878;28;20247;-40
2022/03/04 03:30:29;;;;;;;104.38;9.82;;;;;;;-1.50;100.00;102393.06;4992626;28;20193;-42
2022/03/04 03:32:54;;;;;;;28.83;7.10;;;;;;;-1.49;100.00;102401.84;5007297;28;20197;-43
2022/03/04 03:35:20;;;;;;;23.25;7.85;;;;;;;-1.32;100.00;102392.81;4992547;28;20179;-41
2022/03/04 03:37:45;;;;;;;31.85;7.53;;;;;;;-1.35;100.00;102392.72;4992526;28;20535;-43
2022/03/04 03:40:12;;;;;;;45.60;7.72;;;;;;;-1.27;100.00;102399.16;5007451;28;20205;-40
2022/03/04 03:42:41;;;;;;;71.45;8.75;;;;;;;-1.51;100.00;102398.25;4991825;28;20330;-43
2022/03/04 03:45:10;;;;;;;81.40;8.88;;;;;;;-1.61;100.00;102407.53;4992665;28;20596;-42
2022/03/04 03:47:38;;;;;;;179.35;12.93;;;;;;;-1.76;100.00;102399.09;4992285;28;20206;-42
2022/03/04 03:50:05;;;;;;;65.00;8.82;;;;;;;-1.55;100.00;102391.09;4992472;28;20212;-43
2022/03/04 03:52:31;;;;;;;99.10;9.80;;;;;;;-1.64;100.00;102386.44;4991866;28;20193;-42
2022/03/04 03:54:57;;;;;;;36.88;8.32;;;;;;;-1.70;100.00;102401.97;4992075;28;20184;-41
2022/03/04 03:57:22;;;;;;;42.08;8.65;;;;;;;-1.70;100.00;102397.59;4992496;28;20662;-43
2022/03/04 03:59:48;;;;;;;165.73;11.23;;;;;;;-1.78;100.00;102398.13;4992055;28;20220;-43
2022/03/04 04:02:13;;;;;;;53.90;8.00;;;;;;;-1.77;100.00;102392.94;4991942;28;20288;-42
2022/03/04 04:04:39;;;;;;;13.77;7.53;;;;;;;-1.64;100.00;102399.56;4992265;28;20188;-39
2022/03/04 04:07:06;;;;;;;189.02;13.68;;;;;;;-1.77;100.00;102413.97;4992308;28;20185;-41
2022/03/04 04:09:32;;;;;;;94.53;8.30;;;;;;;-1.76;100.00;102407.88;5006935;28;20185;-44
2022/03/04 04:11:58;;;;;;;60.72;8.82;;;;;;;-1.52;100.00;102407.88;4991735;28;20195;-41
2022/03/04 04:14:24;;;;;;;47.42;9.20;;;;;;;-1.62;100.00;102399.59;4991776;28;20259;-40
2022/03/04 04:16:49;;;;;;;145.80;11.75;;;;;;;-1.70;100.00;102401.97;4992166;28;20174;-42
2022/03/04 04:19:14;;;;;;;76.63;9.77;;;;;;;-1.69;100.00;102412.50;5006783;28;20202;-43
2022/03/04 04:21:40;;;;;;;15.50;8.23;;;;;;;-1.55;100.00;102409.50;4992069;28;20193;-42
2022/03/04 04:24:05;;;;;;;35.35;8.13;;;;;;;-1.54;100.00;102419.19;4991059;28;20181;-43
2022/03/04 04:26:31;;;;;;;73.97;9.98;;;;;;;-1.62;100.00;102423.25;4992197;28;20172;-42
2022/03/04 04:28:57;;;;;;;134.10;9.68;;;;;;;-1.66;100.00;102414.38;4991694;28;20161;-43
2022/03/04 04:31:23;;;;;;;140.60;9.75;;;;;;;-1.77;100.00;102424.47;4991610;28;20283;-43
2022/03/04 04:33:49;;;;;;;21.45;7.88;;;;;;;-1.69;100.00;102425.63;4991167;28;20179;-43
2022/03/04 04:36:15;;;;;;;167.85;11.15;;;;;;;-1.84;100.00;102417.19;4991419;28;20260;-44
2022/03/04 04:38:40;;;;;;;54.83;8.00;;;;;;;-1.69;100.00;102422.13;4990732;28;20594;-41
2022/03/04 04:41:06;;;;;;;184.50;11.40;;;;;;;-1.93;100.00;102428.22;4990674;28;20203;-43
2022/03/04 04:43:32;;;;;;;120.70;10.15;;;;;;;-2.03;100.00;102436.59;4991171;28;20620;-42
2022/03/04 04:45:57;;;;;;;87.70;8.65;;;;;;;-2.02;100.00;102421.72;4991815;28;20189;-42
2022/03/04 04:48:23;;;;;;;148.88;11.43;;;;;;;-2.04;100.00;102426.03;4991448;28;20180;-44
2022/03/04 04:50:48;;;;;;;88.53;9.20;;;;;;;-2.10;100.00;102430.22;4991307;28;20161;-44
2022/03/04 04:53:14;;;;;;;107.60;10.02;;;;;;;-2.14;100.00;102423.06;4990319;28;20189;-43
2022/03/04 04:55:39;;;;;;;231.25;12.25;;;;;;;-2.15;100.00;102417.72;4991505;28;20549;-41
2022/03/04 04:58:04;;;;;;;29.60;8.07;;;;;;;-2.00;100.00;102410.44;5001395;28;20188;-44
2022/03/04 05:00:30;;;;;;;67.43;8.90;;;;;;;-2.00;100.00;102413.06;5002276;28;20205;-42
2022/03/04 05:02:55;;;;;;;108.75;10.23;;;;;;;-1.95;100.00;102408.88;4990640;28;20204;-43
2022/03/04 05:05:21;;;;;;;194.55;11.23;;;;;;;-2.14;100.00;102420.44;5006126;28;20748;-45
2022/03/04 05:07:47;;;;;;;202.60;13.05;;;;;;;-2.16;100.00;102419.47;4991584;28;20185;-43
2022/03/04 05:10:12;;;;;;;291.02;14.95;;;;;;;-2.44;100.00;102416.56;4991260;28;20280;-43
2022/03/04 05:12:39;;;;;;;43.45;8.55;;;;;;;-2.40;100.00;102415.88;4972968;28;20203;-43
2022/03/04 05:15:05;;;;;;;92.13;9.30;;;;;;;-2.17;100.00;102412.41;4973354;28;20209;-42
2022/03/04 05:17:31;;;;;;;56.10;8.00;;;;;;;-2.38;100.00;102416.84;4990887;28;20656;-42
2022/03/04 05:19:56;;;;;;;47.58;9.80;;;;;;;-2.23;100.00;102425.31;4990760;28;20196;-46
2022/03/04 05:22:21;;;;;;;17.75;7.50;;;;;;;-2.05;100.00;102413.75;4990560;28;20248;-44
2022/03/04 05:24:47;;;;;;;113.47;10.05;;;;;;;-2.14;100.00;102424.78;4990746;28;20193;-43
2022/03/04 05:27:12;;;;;;;78.68;8.98;;;;;;;-2.45;100.00;102426.16;4990250;28;20220;-41
2022/03/04 05:29:37;;;;;;;63.40;8.43;;;;;;;-2.26;100.00;102425.19;4991023;28;20256;-39
2022/03/04 05:32:03;;;;;;;24.70;6.85;;;;;;;-2.23;100.00;102434.91;4989191;28;20205;-41
2022/03/04 05:34:29;;;;;;;11.75;6.82;;;;;;;-2.13;100.00;102435.31;4990971;28;20165;-43
2022/03/04 05:36:54;;;;;;;8.00;5.82;;;;;;;-2.16;100.00;102434.34;4990759;28;20173;-41
2022/03/04 05:39:20;;;;;;;21.00;6.55;;;;;;;-2.12;100.00;102441.47;4990819;28;20205;-41
2022/03/04 05:41:45;;;;;;;113.38;9.90;;;;;;;-2.33;100.00;102429.28;4989939;28;20224;-42
2022/03/04 05:44:11;;;;;;;9.75;6.13;;;;;;;-2.32;100.00;102432.81;4990339;28;20652;-40
2022/03/04 05:46:37;;;;;;;72.85;8.27;;;;;;;-2.42;100.00;102443.78;4990893;28;20176;-42
2022/03/04 05:49:03;;;;;;;72.05;8.93;;;;;;;-2.41;100.00;102437.69;4990422;28;20173;-44
2022/03/04 05:51:29;;;;;;;28.02;8.40;;;;;;;-2.32;100.00;102443.28;4973166;28;20205;-44
2022/03/04 05:53:54;;;;;;;120.90;10.20;;;;;;;-2.58;100.00;102448.41;4990053;28;20169;-46
2022/03/04 05:56:20;;;;;;;29.90;7.43;;;;;;;-2.40;100.00;102447.38;4990350;28;20244;-44
2022/03/04 05:58:46;;;;;;;50.33;6.95;;;;;;;-2.35;100.00;102453.69;4990378;28;20172;-43
2022/03/04 06:01:11;;;;;;;92.90;7.85;;;;;;;-2.77;100.00;102457.22;4989836;28;20208;-43
2022/03/04 06:03:37;;;;;;;28.63;6.55;;;;;;;-2.59;100.00;102474.56;4990266;28;20177;-42
2022/03/04 06:06:04;;;;;;;39.00;6.60;;;;;;;-2.65;100.00;102464.69;4990130;28;20264;-43
2022/03/04 06:08:29;;;;;;;76.28;7.75;;;;;;;-2.79;100.00;102472.00;4990096;28;20176;-42
2022/03/04 06:10:55;;;;;;;126.22;8.63;;;;;;;-2.90;100.00;102479.38;4990282;28;20582;-44
2022/03/04 06:13:20;;;;;;;23.88;7.55;;;;;;;-2.67;100.00;102478.59;4989281;28;20166;-44
2022/03/04 06:15:46;;;;;;;28.35;7.43;;;;;;;-2.60;100.00;102486.78;4990223;28;20204;-42
2022/03/04 06:18:11;;;;;;;37.30;7.38;;;;;;;-2.79;100.00;102484.22;4990077;28;20292;-42
2022/03/04 06:20:37;;;;;;;37.55;7.78;;;;;;;-2.80;100.00;102482.41;4990063;28;20614;-43
2022/03/04 06:23:02;;;;;;;25.83;7.50;;;;;;;-2.60;100.00;102483.25;4989484;28;20189;-41
2022/03/04 06:25:28;;;;;;;51.03;7.63;;;;;;;-2.83;100.00;102487.53;4989933;28;20180;-44
2022/03/04 06:27:58;;;;;;;21.92;6.60;;;;;;;-2.81;100.00;102485.88;4990257;28;20184;-44
2022/03/04 06:30:26;;;;;;;68.28;7.75;;;;;;;-2.68;100.00;102489.91;4990188;28;20169;-44
2022/03/04 06:33:30;;;;;;;98.43;8.65;;;;;;;-2.78;100.00;102494.75;4989362;28;20209;-43
2022/03/04 06:35:38;;;;;;;40.53;7.40;;;;;;;-2.92;100.00;102503.75;4989932;28;20169;-46
2022/03/04 06:38:05;;;;;;;16.45;7.05;;;;;;;-2.72;100.00;102497.66;5006245;28;20177;-44
2022/03/04 06:40:30;;;;;;;66.15;8.02;;;;;;;-2.86;100.00;102500.50;4993505;28;20291;-44
2022/03/04 06:42:56;;;;;;;26.15;6.88;;;;;;;-2.71;100.00;102501.19;4992823;28;20299;-45
2022/03/04 06:45:21;;;;;;;38.60;7.68;;;;;;;-2.71;100.00;102501.19;4993498;28;20173;-43
2022/03/04 06:47:46;;;;;;;60.63;8.18;;;;;;;-2.89;100.00;102501.25;4993254;28;20177;-42
2022/03/04 06:50:12;;;;;;;41.97;7.63;;;;;;;-2.75;100.00;102489.66;4994779;28;20177;-44
2022/03/04 06:52:37;;;;;;;42.17;7.32;;;;;;;-2.66;100.00;102501.38;4991992;28;20291;-45
2022/03/04 06:55:04;;;;;;;135.80;8.55;;;;;;;-2.81;100.00;102501.59;4992580;28;20184;-47
2022/03/04 06:57:29;;;;;;;9.30;5.60;;;;;;;-2.75;100.00;102494.00;4993471;28;20162;-49
2022/03/04 06:59:55;;;;;;;181.43;9.00;;;;;;;-3.19;100.00;102495.56;4993168;28;20812;-49
2022/03/04 07:02:20;;;;;;;170.93;8.95;;;;;;;-3.08;100.00;102498.66;4992417;28;20198;-49
2022/03/04 07:04:46;;;;;;;91.07;7.15;;;;;;;-3.07;100.00;102495.22;4992915;28;20178;-45
2022/03/04 07:07:12;;;;;;;41.97;6.28;;;;;;;-2.86;100.00;102501.41;4997499;28;20197;-46
2022/03/04 07:09:37;;;;;;;25.65;5.47;;;;;;;-2.77;100.00;102511.41;4975822;28;20188;-48
2022/03/04 07:12:03;;;;;;;72.85;7.72;;;;;;;-2.76;100.00;102497.44;4992349;28;20201;-48
2022/03/04 07:14:28;;;;;;;23.45;5.80;;;;;;;-2.57;100.00;102505.28;4993252;28;20245;-47
2022/03/04 07:16:54;;;;;;;16.77;6.93;;;;;;;-2.47;100.00;102509.22;4992287;28;20204;-48
2022/03/04 07:19:19;;;;;;;37.45;6.22;;;;;;;-2.50;100.00;102504.69;4992882;28;20209;-50
2022/03/04 07:21:45;;;;;;;69.55;7.65;;;;;;;-2.56;100.00;102507.09;4992091;28;20557;-47
2022/03/04 07:24:10;;;;;;;63.08;7.68;;;;;;;-2.60;100.00;102504.25;4992764;28;20178;-45
2022/03/04 07:26:36;;;;;;;118.53;7.88;;;;;;;-2.82;100.00;102505.03;4992724;28;20174;-49
2022/03/04 07:29:01;;;;;;;40.58;6.38;;;;;;;-2.70;100.00;102514.34;4992198;28;20239;-47
2022/03/04 07:31:26;;;;;;;218.60;10.80;;;;;;;-2.75;100.00;102515.00;4992414;28;20197;-47
2022/03/04 07:33:52;;;;;;;16.65;5.18;;;;;;;-2.55;100.00;102508.88;4991867;28;20341;-47
2022/03/04 07:36:19;;;;;;;48.50;6.18;;;;;;;-2.51;100.00;102525.66;4992367;28;20712;-49
2022/03/04 07:38:44;;;;;;;12.35;5.50;;;;;;;-2.44;100.00;102506.69;4992744;28;20181;-50
2022/03/04 07:41:09;;;;;;;32.45;5.60;;;;;;;-2.39;100.00;102514.75;4992266;28;20205;-47
2022/03/04 07:43:35;;;;;;;80.05;7.25;;;;;;;-2.52;100.00;102519.47;4992076;28;20201;-47
2022/03/04 07:46:00;;;;;;;22.42;5.45;;;;;;;-2.36;100.00;102521.03;4992711;28;20645;-48
2022/03/04 07:48:27;;;;;;;25.63;6.10;;;;;;;-2.74;100.00;102511.53;4975196;28;20186;-49
2022/03/04 07:50:53;;;;;;;73.22;6.82;;;;;;;-2.69;100.00;102517.84;4973661;28;20174;-49
2022/03/04 07:53:18;;;;;;;12.25;4.80;;;;;;;-2.42;100.00;102527.78;4991856;28;20246;-44
2022/03/04 07:55:44;;;;;;;66.03;6.95;;;;;;;-2.41;100.00;102516.41;4990874;28;20594;-44
2022/03/04 07:58:09;;;;;;;61.17;7.35;;;;;;;-2.23;100.00;102518.91;4990670;28;20201;-49
2022/03/04 08:00:35;;;;;;;24.13;5.97;;;;;;;-2.18;100.00;102522.66;4991052;28;20264;-47
2022/03/04 08:03:01;;;;;;;72.40;6.28;;;;;;;-2.19;100.00;102519.09;4989936;28;20213;-48
2022/03/04 08:05:27;;;;;;;43.38;6.05;;;;;;;-2.23;100.00;102535.59;4990074;28;20182;-46
2022/03/04 08:07:53;;;;;;;9.88;5.65;;;;;;;-2.00;100.00;102533.88;4990883;28;20201;-45
2022/03/04 08:10:19;;;;;;;69.95;6.88;;;;;;;-2.20;100.00;102532.19;4990941;28;20274;-46
2022/03/04 08:12:45;;;;;;;14.38;6.50;;;;;;;-2.09;100.00;102542.28;4989900;28;20209;-47
2022/03/04 08:15:12;;;;;;;33.20;6.57;;;;;;;-1.83;100.00;102533.69;4972734;28;20223;-47
2022/03/04 08:17:41;;;;;;;23.55;7.07;;;;;;;-1.74;100.00;102542.81;4991463;28;20636;-48
2022/03/04 08:20:08;;;;;;;23.27;6.15;;;;;;;-1.73;100.00;102534.13;4991775;28;20205;-47
2022/03/04 08:22:33;;;;;;;33.40;6.88;;;;;;;-1.70;100.00;102538.59;4991201;28;20243;-49
2022/03/04 08:24:59;;;;;;;33.78;7.13;;;;;;;-1.70;100.00;102549.09;4991634;28;20174;-46
2022/03/04 08:27:24;;;;;;;27.17;6.93;;;;;;;-1.70;100.00;102542.09;4974129;28;20629;-50
2022/03/04 08:29:50;;;;;;;20.50;6.95;;;;;;;-1.39;100.00;102535.41;4991603;28;20173;-47
2022/03/04 08:32:16;;;;;;;11.18;6.70;;;;;;;-1.32;100.00;102545.31;4990214;28;20207;-48
2022/03/04 08:34:42;;;;;;;9.70;6.70;;;;;;;-1.48;100.00;102553.47;4991591;28;20169;-47
2022/03/04 08:37:08;;;;;;;7.55;6.20;;;;;;;-1.44;100.00;102544.88;4991568;28;20177;-47
2022/03/04 08:39:34;;;;;;;20.20;6.35;;;;;;;-1.64;100.00;102543.19;4991932;28;20212;-45
2022/03/04 08:41:59;;;;;;;13.10;5.72;;;;;;;-1.62;100.00;102550.28;4989262;28;20201;-47
2022/03/04 08:44:24;;;;;;;46.55;6.72;;;;;;;-1.92;100.00;102540.34;4990811;28;20307;-48
2022/03/04 08:46:50;;;;;;;11.90;5.53;;;;;;;-1.55;100.00;102556.66;4991425;28;20211;-47
2022/03/04 08:49:19;;;;;;;10.98;6.07;;;;;;;-1.45;100.00;102562.34;4993245;28;20219;-45
2022/03/04 08:51:45;;;;;;;30.30;5.72;;;;;;;-1.83;100.00;102555.59;4989582;28;20224;-47
2022/03/04 08:54:10;;;;;;;18.08;6.55;;;;;;;-1.59;100.00;102557.41;4989603;28;20180;-47
2022/03/04 08:56:36;;;;;;;9.73;6.72;;;;;;;-1.26;100.00;102560.44;4989498;28;20181;-44
2022/03/04 08:59:02;;;;;;;8.20;6.45;;;;;;;-1.34;100.00;102559.25;4989549;28;20434;-46
2022/03/04 09:01:27;;;;;;;11.18;5.93;;;;;;;-1.09;100.00;102561.97;4989761;28;20197;-49
2022/03/04 09:03:53;;;;;;;45.53;7.53;;;;;;;-1.18;100.00;102559.00;4989949;28;20173;-45
2022/03/04 09:06:18;;;;;;;28.35;7.47;;;;;;;-1.16;100.00;102565.22;4991029;28;20283;-44
2022/03/04 09:08:44;;;;;;;15.23;5.78;;;;;;;-1.15;100.00;102561.75;4990965;28;20169;-45
2022/03/04 09:11:09;;;;;;;23.20;6.15;;;;;;;-0.81;100.00;102570.88;4990319;28;20264;-41
2022/03/04 09:13:34;;;;;;;12.00;5.80;;;;;;;-1.06;100.00;102574.34;4989894;28;20173;-39
2022/03/04 09:16:01;;;;;;;41.33;6.60;;;;;;;-1.27;100.00;102571.78;4991268;28;20189;-45
2022/03/04 09:18:27;;;;;;;7.20;5.88;;;;;;;-0.74;100.00;102572.91;4991673;28;20177;-42
2022/03/04 09:20:53;;;;;;;20.92;6.47;;;;;;;-0.34;100.00;102570.78;4990613;28;20284;-41
2022/03/04 09:23:19;;;;;;;9.57;7.03;;;;;;;-0.06;100.00;102562.09;4990870;28;20248;-42
2022/03/04 09:25:44;;;;;;;16.27;7.30;;;;;;;0.01;100.00;102560.56;4991319;28;20731;-43
2022/03/04 09:28:10;;;;;;;11.98;7.20;;;;;;;-0.52;100.00;102569.31;4990567;28;20177;-43
2022/03/04 09:30:36;;;;;;;15.50;7.65;;;;;;;-0.55;100.00;102566.53;4990685;28;20177;-41
2022/03/04 09:33:03;;;;;;;10.70;7.68;;;;;;;-0.17;100.00;102577.53;4990122;28;20698;-42
2022/03/04 09:35:28;;;;;;;12.60;7.75;;;;;;;-0.22;100.00;102568.56;4991122;28;20181;-42
2022/03/04 09:37:54;;;;;;;10.20;6.57;;;;;;;-0.12;100.00;102569.78;4991314;28;20231;-40
2022/03/04 09:40:20;;;;;;;8.98;7.03;;;;;;;0.01;100.00;102584.28;4990502;28;20628;-40
2022/03/04 09:42:45;;;;;;;13.60;7.53;;;;;;;-0.16;100.00;102579.31;4990309;28;20293;-41
2022/03/04 09:45:11;;;;;;;18.45;6.95;;;;;;;-0.01;100.00;102579.81;4990640;28;20193;-42
2022/03/04 09:47:37;;;;;;;9.57;7.25;;;;;;;0.20;100.00;102573.50;4990307;28;20595;-42
2022/03/04 09:50:05;;;;;;;11.30;7.47;;;;;;;0.22;100.00;102571.81;4989967;28;20329;-43
2022/03/04 09:52:32;;;;;;;9.50;8.00;;;;;;;0.11;100.00;102575.81;4973299;28;20201;-43
2022/03/04 09:54:58;;;;;;;15.70;7.93;;;;;;;-0.32;100.00;102563.84;4989957;28;20192;-43
2022/03/04 09:57:24;;;;;;;12.05;7.93;;;;;;;-0.15;100.00;102570.59;4990837;28;20315;-43
2022/03/04 09:59:49;;;;;;;14.85;8.15;;;;;;;0.06;100.00;102577.41;4990855;28;20201;-44
2022/03/04 10:02:15;;;;;;;10.63;8.63;;;;;;;0.26;100.00;102571.03;4990278;28;20284;-41
2022/03/04 10:04:41;;;;;;;12.45;9.25;;;;;;;0.71;100.00;102564.53;4990950;28;20301;-40
2022/03/04 10:07:17;;;;;;;12.02;8.85;;;;;;;0.45;100.00;102579.53;5005640;28;20182;-40
2022/03/04 10:09:43;;;;;;;14.82;9.40;;;;;;;-0.02;100.00;102585.97;4990852;28;20196;-41
2022/03/04 10:12:11;;;;;;;13.25;8.70;;;;;;;0.01;100.00;102576.38;4990338;28;20249;-39
2022/03/04 10:15:15;;;;;;;13.07;8.63;;;;;;;0.21;100.00;102572.63;5010883;28;20181;-44
2022/03/04 10:17:41;;;;;;;13.65;9.57;;;;;;;0.47;100.00;102575.22;4972059;28;20326;-45
2022/03/04 10:20:12;;;;;;;13.00;9.73;;;;;;;0.74;100.00;102569.88;4956330;28;20221;-43
2022/03/04 10:22:46;;;;;;;21.00;12.18;;;;;;;0.50;100.00;102573.53;4983010;28;20680;-45
2022/03/04 10:25:21;;;;;;;15.63;11.55;;;;;;;0.85;100.00;102580.75;4993156;28;20214;-45
2022/03/04 10:27:47;;;;;;;20.30;14.65;;;;;;;0.84;100.00;102576.34;4992902;28;20189;-42
2022/03/04 10:30:14;;;;;;;24.17;16.05;;;;;;;0.85;100.00;102592.19;4992660;28;20551;-44
2022/03/04 10:32:40;;;;;;;24.25;16.35;;;;;;;0.99;100.00;102585.59;4991886;28;20288;-45
2022/03/04 10:35:08;;;;;;;22.83;15.90;;;;;;;0.85;100.00;102579.00;4991062;28;20771;-44
2022/03/04 10:37:44;;;;;;;22.00;16.40;;;;;;;1.10;100.00;102585.03;4992821;28;20185;-44
2022/03/04 10:40:25;;;;;;;23.75;16.00;;;;;;;1.08;100.00;102595.53;4992639;28;20197;-42
2022/03/04 10:42:52;;;;;;;22.45;15.88;;;;;;;1.10;100.00;102592.94;4991924;28;20205;-43
2022/03/04 10:45:17;;;;;;;18.27;13.38;;;;;;;1.08;100.00;102592.00;4991681;28;20196;-44
2022/03/04 10:47:46;;;;;;;19.55;13.68;;;;;;;0.90;100.00;102595.00;4987470;28;20636;-46
2022/03/04 10:50:17;;;;;;;15.70;11.52;;;;;;;1.38;100.00;102582.31;4989069;28;20660;-44
2022/03/04 10:52:54;;;;;;;15.00;10.98;;;;;;;1.19;100.00;102598.50;4990425;28;20205;-46
2022/03/04 10:55:31;;;;;;;14.73;10.98;;;;;;;1.26;100.00;102583.72;4991112;28;20173;-45
2022/03/04 10:57:59;;;;;;;11.38;9.77;;;;;;;1.20;100.00;102595.00;4990775;28;20490;-45
2022/03/04 11:00:49;;;;;;;12.18;9.15;;;;;;;1.16;100.00;102595.75;4990946;28;20190;-44
2022/03/04 11:03:23;;;;;;;11.75;9.50;;;;;;;1.53;100.00;102588.84;4993550;28;20197;-43